JES3296 SABE-SAZN
Flight info
| Callsign | JES3296 |
|---|---|
| Flight time | N/A |
| Altitude | 34000 |
| Route | PAL9XTORUL/13 TORUL DCT BIXIM UT669 ROPON |
| Aircraft | A320/M-SDE3FGHIRWY/LB1 |
Departure
| Time | N/A |
|---|---|
| Airport | Aeroparque Jorge Newbery (SABE) |
Arrival
| Time | 2026-04-17 01:44 |
|---|---|
| Airport | Presidente Perón International Airport (SAZN) |
| Time | Latitude | Longitude | Altitude | Speed | Heading |
|---|---|---|---|---|---|
| 2026-04-17 01:16 | -38.42579 | -65.99131 | 33829 ft | 412 kts | 252° |
| 2026-04-17 01:16 | -38.44869 | -66.05785 | 33829 ft | 412 kts | 252° |
| 2026-04-17 01:17 | -38.47166 | -66.12469 | 33838 ft | 411 kts | 252° |
| 2026-04-17 01:17 | -38.49196 | -66.18388 | 33843 ft | 412 kts | 252° |
| 2026-04-17 01:19 | -38.50467 | -66.22098 | 33846 ft | 412 kts | 252° |
| 2026-04-17 01:19 | -38.52736 | -66.28735 | 33847 ft | 410 kts | 252° |
| 2026-04-17 01:20 | -38.55008 | -66.35397 | 33850 ft | 409 kts | 252° |
| 2026-04-17 01:20 | -38.57278 | -66.42082 | 33526 ft | 410 kts | 252° |
| 2026-04-17 01:21 | -38.58404 | -66.45386 | 33007 ft | 409 kts | 252° |
| 2026-04-17 01:21 | -38.59538 | -66.48698 | 32280 ft | 411 kts | 252° |
| 2026-04-17 01:21 | -38.60681 | -66.52042 | 31487 ft | 414 kts | 251° |
| 2026-04-17 01:21 | -38.61836 | -66.55421 | 30787 ft | 414 kts | 251° |
| 2026-04-17 01:22 | -38.62974 | -66.58747 | 30124 ft | 413 kts | 252° |
| 2026-04-17 01:22 | -38.64117 | -66.62091 | 29471 ft | 411 kts | 251° |
| 2026-04-17 01:22 | -38.65261 | -66.65450 | 28780 ft | 411 kts | 252° |
| 2026-04-17 01:22 | -38.66389 | -66.68771 | 28037 ft | 412 kts | 251° |
| 2026-04-17 01:23 | -38.67521 | -66.72105 | 27330 ft | 412 kts | 251° |
| 2026-04-17 01:23 | -38.68648 | -66.75420 | 26811 ft | 407 kts | 251° |
| 2026-04-17 01:23 | -38.69768 | -66.78718 | 26288 ft | 404 kts | 251° |
| 2026-04-17 01:23 | -38.70861 | -66.81940 | 25767 ft | 400 kts | 251° |
| 2026-04-17 01:24 | -38.71949 | -66.85152 | 25245 ft | 397 kts | 251° |
| 2026-04-17 01:24 | -38.73043 | -66.88390 | 24736 ft | 394 kts | 251° |
| 2026-04-17 01:24 | -38.74123 | -66.91590 | 24224 ft | 391 kts | 251° |
| 2026-04-17 01:24 | -38.75194 | -66.94766 | 23718 ft | 389 kts | 251° |
| 2026-04-17 01:25 | -38.76261 | -66.97934 | 23213 ft | 386 kts | 250° |
| 2026-04-17 01:25 | -38.77314 | -67.01064 | 22730 ft | 383 kts | 250° |
| 2026-04-17 01:25 | -38.78361 | -67.04177 | 22252 ft | 380 kts | 250° |
| 2026-04-17 01:25 | -38.79390 | -67.07259 | 21780 ft | 377 kts | 252° |
| 2026-04-17 01:26 | -38.80210 | -67.10421 | 21309 ft | 371 kts | 258° |
| 2026-04-17 01:26 | -38.80702 | -67.13616 | 20836 ft | 366 kts | 265° |
| 2026-04-17 01:26 | -38.80912 | -67.16865 | 20364 ft | 362 kts | 268° |
| 2026-04-17 01:26 | -38.81034 | -67.20042 | 19901 ft | 359 kts | 269° |
| 2026-04-17 01:27 | -38.81147 | -67.23231 | 19421 ft | 357 kts | 269° |
| 2026-04-17 01:27 | -38.81258 | -67.26396 | 18951 ft | 354 kts | 269° |
| 2026-04-17 01:27 | -38.81370 | -67.29507 | 18498 ft | 351 kts | 269° |
| 2026-04-17 01:27 | -38.81480 | -67.32620 | 18034 ft | 348 kts | 269° |
| 2026-04-17 01:28 | -38.81589 | -67.35667 | 17579 ft | 346 kts | 269° |
| 2026-04-17 01:28 | -38.81701 | -67.38753 | 17122 ft | 344 kts | 269° |
| 2026-04-17 01:28 | -38.81809 | -67.41799 | 16662 ft | 341 kts | 269° |
| 2026-04-17 01:28 | -38.81915 | -67.44811 | 16210 ft | 338 kts | 269° |
| 2026-04-17 01:29 | -38.82019 | -67.47817 | 15749 ft | 336 kts | 269° |
| 2026-04-17 01:29 | -38.82221 | -67.53702 | 14829 ft | 330 kts | 270° |
| 2026-04-17 01:29 | -38.82320 | -67.56638 | 14476 ft | 324 kts | 270° |
| 2026-04-17 01:30 | -38.82415 | -67.59473 | 14135 ft | 319 kts | 270° |
| 2026-04-17 01:30 | -38.82509 | -67.62291 | 13784 ft | 313 kts | 270° |
| 2026-04-17 01:30 | -38.82600 | -67.65022 | 13438 ft | 309 kts | 271° |
| 2026-04-17 01:30 | -38.82690 | -67.67783 | 13107 ft | 304 kts | 271° |
| 2026-04-17 01:31 | -38.82777 | -67.70455 | 12770 ft | 301 kts | 271° |
| 2026-04-17 01:31 | -38.82861 | -67.73113 | 12436 ft | 297 kts | 271° |
| 2026-04-17 01:31 | -38.82944 | -67.75727 | 12111 ft | 294 kts | 271° |
| 2026-04-17 01:31 | -38.83027 | -67.78336 | 11788 ft | 292 kts | 271° |
| 2026-04-17 01:32 | -38.83110 | -67.80932 | 11463 ft | 289 kts | 271° |
| 2026-04-17 01:32 | -38.83192 | -67.83491 | 11150 ft | 287 kts | 271° |
| 2026-04-17 01:32 | -38.83272 | -67.86042 | 10844 ft | 286 kts | 272° |
| 2026-04-17 01:32 | -38.83351 | -67.88573 | 10539 ft | 284 kts | 272° |
| 2026-04-17 01:33 | -38.83428 | -67.91098 | 10210 ft | 284 kts | 272° |
| 2026-04-17 01:33 | -38.83503 | -67.93595 | 9898 ft | 282 kts | 271° |
| 2026-04-17 01:33 | -38.83579 | -67.96145 | 9953 ft | 282 kts | 272° |
| 2026-04-17 01:33 | -38.83656 | -67.98621 | 10078 ft | 276 kts | 272° |
| 2026-04-17 01:34 | -38.83730 | -68.01026 | 9896 ft | 266 kts | 272° |
| 2026-04-17 01:34 | -38.83802 | -68.03363 | 9689 ft | 258 kts | 272° |
| 2026-04-17 01:34 | -38.83866 | -68.05633 | 9373 ft | 255 kts | 271° |
| 2026-04-17 01:34 | -38.83931 | -68.07870 | 9156 ft | 248 kts | 271° |
| 2026-04-17 01:35 | -38.83993 | -68.10088 | 8476 ft | 257 kts | 271° |
| 2026-04-17 01:35 | -38.84055 | -68.12352 | 7983 ft | 249 kts | 270° |
| 2026-04-17 01:35 | -38.84119 | -68.14521 | 7486 ft | 243 kts | 270° |
| 2026-04-17 01:35 | -38.84181 | -68.16654 | 6894 ft | 241 kts | 270° |
| 2026-04-17 01:36 | -38.84239 | -68.18787 | 6297 ft | 240 kts | 269° |
| 2026-04-17 01:36 | -38.84298 | -68.20901 | 5685 ft | 238 kts | 269° |
| 2026-04-17 01:36 | -38.84358 | -68.23010 | 5120 ft | 234 kts | 268° |
| 2026-04-17 01:36 | -38.84416 | -68.25079 | 4561 ft | 232 kts | 268° |
| 2026-04-17 01:37 | -38.84473 | -68.27123 | 4288 ft | 224 kts | 267° |
| 2026-04-17 01:37 | -38.84526 | -68.29066 | 4114 ft | 216 kts | 267° |
| 2026-04-17 01:37 | -38.84579 | -68.30947 | 3948 ft | 208 kts | 267° |
| 2026-04-17 01:37 | -38.84630 | -68.32778 | 3787 ft | 200 kts | 267° |
| 2026-04-17 01:38 | -38.84679 | -68.34515 | 3635 ft | 189 kts | 267° |
| 2026-04-17 01:38 | -38.84764 | -68.36101 | 3605 ft | 173 kts | 255° |
| 2026-04-17 01:38 | -38.85299 | -68.37463 | 3697 ft | 173 kts | 233° |
| 2026-04-17 01:38 | -38.86258 | -68.38429 | 3657 ft | 179 kts | 211° |
| 2026-04-17 01:39 | -38.87500 | -68.38795 | 3638 ft | 186 kts | 191° |
| 2026-04-17 01:39 | -38.88783 | -68.38836 | 3629 ft | 187 kts | 187° |
| 2026-04-17 01:39 | -38.90083 | -68.38837 | 3621 ft | 187 kts | 187° |
| 2026-04-17 01:39 | -38.91385 | -68.38839 | 3619 ft | 187 kts | 188° |
| 2026-04-17 01:40 | -38.92690 | -68.38843 | 3619 ft | 187 kts | 187° |
| 2026-04-17 01:40 | -38.93996 | -68.38478 | 3596 ft | 202 kts | 154° |
| 2026-04-17 01:40 | -38.94848 | -68.37083 | 3577 ft | 201 kts | 110° |
| 2026-04-17 01:40 | -38.94980 | -68.35362 | 3612 ft | 192 kts | 91° |
| 2026-04-17 01:41 | -38.94933 | -68.33663 | 3623 ft | 187 kts | 88° |
| 2026-04-17 01:41 | -38.94883 | -68.32046 | 3562 ft | 176 kts | 89° |
| 2026-04-17 01:41 | -38.94861 | -68.30502 | 3245 ft | 172 kts | 92° |
| 2026-04-17 01:41 | -38.94862 | -68.28978 | 2855 ft | 171 kts | 91° |
| 2026-04-17 01:42 | -38.94869 | -68.27474 | 2612 ft | 165 kts | 91° |
| 2026-04-17 01:42 | -38.94874 | -68.25997 | 2614 ft | 165 kts | 91° |
| 2026-04-17 01:42 | -38.94903 | -68.24514 | 2463 ft | 170 kts | 93° |
| 2026-04-17 01:42 | -38.94915 | -68.22993 | 1982 ft | 172 kts | 88° |
| 2026-04-17 01:43 | -38.94911 | -68.21484 | 1628 ft | 166 kts | 89° |
| 2026-04-17 01:43 | -38.94917 | -68.20049 | 1351 ft | 154 kts | 90° |
| 2026-04-17 01:43 | -38.94905 | -68.18709 | 1158 ft | 149 kts | 89° |
| 2026-04-17 01:43 | -38.94902 | -68.17404 | 993 ft | 148 kts | 90° |
| 2026-04-17 01:44 | -38.94900 | -68.16119 | 906 ft | 136 kts | 90° |
| 2026-04-17 01:44 | -38.94900 | -68.15268 | 905 ft | 57 kts | 90° |
| 2026-04-17 01:44 | -38.94902 | -68.14915 | 905 ft | 35 kts | 90° |
| 2026-04-17 01:44 | -38.94902 | -68.14613 | 905 ft | 32 kts | 89° |
| 2026-04-17 01:45 | -38.94902 | -68.14333 | 905 ft | 30 kts | 91° |
| 2026-04-17 01:45 | -38.94918 | -68.14160 | 905 ft | 14 kts | 117° |
| 2026-04-17 01:45 | -38.94982 | -68.14117 | 905 ft | 4 kts | 180° |
| 2026-04-17 01:45 | -38.95011 | -68.14117 | 905 ft | 0 kts | 180° |
| 2026-04-17 01:47 | -38.95012 | -68.14117 | 905 ft | 0 kts | 180° |
| 2026-04-17 01:47 | -38.95026 | -68.14117 | 905 ft | 3 kts | 180° |